createdAt,value
2019-03-02T00:04:52.352Z,14.97
2019-03-02T00:09:45.240Z,16.73
2019-03-02T00:14:38.136Z,17.07
2019-03-02T00:19:31.031Z,16.93
2019-03-02T00:24:23.956Z,15.57
2019-03-02T00:29:16.822Z,17.73
2019-03-02T00:34:09.760Z,16.40
2019-03-02T00:39:03.766Z,19.07
2019-03-02T00:43:59.781Z,18.27
2019-03-02T00:48:51.466Z,17.70
2019-03-02T00:53:44.335Z,20.83
2019-03-02T00:58:37.247Z,17.83
2019-03-02T01:03:30.081Z,18.43
2019-03-02T01:08:23.080Z,18.13
2019-03-02T01:13:16.812Z,16.57
2019-03-02T01:18:13.128Z,17.93
2019-03-02T01:23:07.185Z,18.03
2019-03-02T01:28:00.165Z,19.40
2019-03-02T01:32:53.692Z,20.50
2019-03-02T01:37:46.824Z,22.20
2019-03-02T01:42:39.752Z,22.13
2019-03-02T01:47:32.736Z,23.60
2019-03-02T01:52:25.657Z,21.97
2019-03-02T01:57:18.557Z,25.97
2019-03-02T02:02:11.638Z,24.00
2019-03-02T02:07:04.919Z,21.47
2019-03-02T02:11:58.423Z,27.93
2019-03-02T02:16:51.382Z,25.47
2019-03-02T02:21:44.383Z,25.07
2019-03-02T02:26:37.298Z,22.47
2019-03-02T02:31:30.211Z,24.10
2019-03-02T02:36:25.454Z,23.07
2019-03-02T02:41:22.972Z,23.00
2019-03-02T02:46:13.123Z,24.80
2019-03-02T02:51:10.220Z,25.37
2019-03-02T02:56:01.990Z,23.43
2019-03-02T03:00:55.652Z,26.30
2019-03-02T03:05:54.190Z,23.40
2019-03-02T03:10:44.491Z,26.53
2019-03-02T03:15:43.710Z,24.93
2019-03-02T03:20:37.005Z,25.60
2019-03-02T03:25:29.950Z,25.63
2019-03-02T03:30:32.919Z,23.17
2019-03-02T03:35:19.983Z,25.00
2019-03-02T03:40:12.925Z,27.97
2019-03-02T03:45:08.310Z,30.73
2019-03-02T03:50:01.350Z,26.87
2019-03-02T03:54:54.242Z,25.50
2019-03-02T03:59:47.242Z,30.07
2019-03-02T04:04:40.146Z,29.20
2019-03-02T04:09:42.865Z,28.87
2019-03-02T04:14:38.202Z,26.57
2019-03-02T04:19:34.069Z,31.33
2019-03-02T04:24:28.052Z,24.77
2019-03-02T04:29:21.935Z,23.50
2019-03-02T04:34:20.683Z,26.50
2019-03-02T04:39:13.613Z,28.90
2019-03-02T04:44:04.752Z,27.17
2019-03-02T04:48:57.675Z,24.93
2019-03-02T04:53:50.593Z,29.43
2019-03-02T04:58:43.721Z,27.70
2019-03-02T05:03:38.295Z,25.43
2019-03-02T05:08:31.187Z,23.77
2019-03-02T05:13:24.803Z,23.60
2019-03-02T05:18:18.991Z,23.27
2019-03-02T05:23:12.087Z,23.73
2019-03-02T05:28:07.238Z,26.37
2019-03-02T05:32:59.811Z,24.77
2019-03-02T05:37:52.744Z,22.77
2019-03-02T05:42:50.800Z,24.23
2019-03-02T05:47:41.288Z,27.17
2019-03-02T05:52:34.257Z,25.27
2019-03-02T05:57:28.703Z,25.40
2019-03-02T06:02:21.634Z,26.50
2019-03-02T06:07:14.883Z,21.77
2019-03-02T06:12:07.840Z,22.60
2019-03-02T06:17:00.700Z,25.07
2019-03-02T06:21:53.602Z,26.10
2019-03-02T06:26:48.491Z,25.97
2019-03-02T06:31:41.474Z,28.13
2019-03-02T06:36:34.365Z,23.50
2019-03-02T06:41:29.755Z,25.93
2019-03-02T06:46:23.468Z,26.47
2019-03-02T06:51:18.429Z,24.87
2019-03-02T06:56:11.632Z,28.10
2019-03-02T07:01:05.658Z,26.43
2019-03-02T07:05:58.587Z,25.47
2019-03-02T07:10:54.505Z,26.07
2019-03-02T07:15:47.452Z,23.40
2019-03-02T07:20:40.977Z,23.53
2019-03-02T07:25:37.094Z,27.57
2019-03-02T07:30:28.613Z,29.23
2019-03-02T07:35:21.585Z,29.00
2019-03-02T07:40:14.873Z,25.30
2019-03-02T07:45:10.958Z,26.33
2019-03-02T07:50:04.677Z,23.03
2019-03-02T07:54:58.577Z,26.80
2019-03-02T07:59:51.777Z,27.10
2019-03-02T08:04:47.587Z,26.60
2019-03-02T08:09:41.906Z,25.93
2019-03-02T08:14:35.132Z,27.90
2019-03-02T08:19:28.119Z,24.93
2019-03-02T08:24:21.149Z,27.23
2019-03-02T08:29:14.176Z,29.83
2019-03-02T08:34:09.762Z,27.07
2019-03-02T08:39:02.207Z,26.83
2019-03-02T08:43:55.526Z,27.87
2019-03-02T08:48:49.777Z,23.50
2019-03-02T08:53:44.453Z,24.60
2019-03-02T08:58:37.368Z,27.80
2019-03-02T09:03:30.397Z,23.70
2019-03-02T09:08:23.343Z,25.80
2019-03-02T09:13:16.275Z,25.40
2019-03-02T09:18:09.258Z,27.13
2019-03-02T09:23:02.204Z,24.73
2019-03-02T09:27:55.143Z,28.77
2019-03-02T09:32:51.057Z,27.97
2019-03-02T09:37:44.820Z,26.73
2019-03-02T09:42:40.213Z,27.10
2019-03-02T09:47:32.653Z,25.23
2019-03-02T09:52:25.567Z,28.23
2019-03-02T09:57:18.513Z,25.30
2019-03-02T10:02:14.474Z,27.37
2019-03-02T10:07:06.632Z,28.47
2019-03-02T10:11:59.677Z,25.23
2019-03-02T10:16:52.688Z,22.13
2019-03-02T10:21:47.467Z,27.67
2019-03-02T10:26:43.323Z,27.63
2019-03-02T10:31:35.634Z,23.10
2019-03-02T10:36:31.034Z,25.37
2019-03-02T10:41:23.539Z,26.20
2019-03-02T10:46:16.478Z,25.40
2019-03-02T10:51:09.456Z,23.83
2019-03-02T10:56:02.500Z,25.90
2019-03-02T11:00:56.555Z,25.40
2019-03-02T11:05:56.907Z,24.53
2019-03-02T11:11:10.553Z,25.87
2019-03-02T11:16:41.092Z,25.43
2019-03-02T11:22:14.976Z,25.90
2019-03-02T11:27:28.487Z,27.10
2019-03-02T11:32:31.656Z,24.73
2019-03-02T11:37:32.316Z,26.60
2019-03-02T11:42:44.901Z,22.80
2019-03-02T11:48:13.670Z,21.13
2019-03-02T11:53:32.934Z,20.30
2019-03-02T11:58:44.029Z,19.80
2019-03-02T12:03:48.719Z,24.53
2019-03-02T12:09:01.266Z,21.83
2019-03-02T12:14:34.565Z,21.67
2019-03-02T12:19:45.082Z,23.13
2019-03-02T12:24:58.498Z,20.30
2019-03-02T12:30:03.451Z,18.63
2019-03-02T12:35:19.011Z,19.97
2019-03-02T12:40:40.126Z,14.63
2019-03-02T12:45:45.984Z,18.87
2019-03-02T12:50:45.215Z,19.87
2019-03-02T12:56:00.899Z,16.40
2019-03-02T13:01:04.063Z,16.13
2019-03-02T13:06:32.246Z,17.20
2019-03-02T13:11:44.021Z,16.63
2019-03-02T13:16:55.851Z,16.10
2019-03-02T13:22:19.265Z,14.30
2019-03-02T13:27:21.587Z,17.97
2019-03-02T13:32:32.841Z,14.70
2019-03-02T13:37:53.010Z,17.07
2019-03-02T13:43:06.178Z,12.30
2019-03-02T13:48:25.730Z,16.30
2019-03-02T13:53:26.307Z,16.27
2019-03-02T13:58:42.401Z,13.63
2019-03-02T14:03:57.515Z,12.40
2019-03-02T14:09:22.552Z,15.13
2019-03-02T14:14:34.356Z,12.60
2019-03-02T14:19:48.444Z,13.47
2019-03-02T14:24:55.149Z,12.80
2019-03-02T14:29:53.531Z,13.87
2019-03-02T14:34:55.487Z,16.00
2019-03-02T14:40:14.625Z,14.13
2019-03-02T14:45:21.828Z,12.90
2019-03-02T14:50:47.459Z,10.90
2019-03-02T14:56:06.342Z,11.20
2019-03-02T15:01:20.717Z,10.40
2019-03-02T15:06:40.489Z,13.97
2019-03-02T15:11:52.280Z,9.93
2019-03-02T15:16:54.540Z,9.43
2019-03-02T15:22:03.777Z,9.67
2019-03-02T15:27:12.947Z,8.37
2019-03-02T15:32:40.855Z,7.93
2019-03-02T15:38:04.133Z,10.47
2019-03-02T15:43:02.475Z,7.47
2019-03-02T15:48:28.555Z,7.90
2019-03-02T15:53:35.440Z,7.97
2019-03-02T15:58:55.654Z,7.60
2019-03-02T16:04:13.000Z,6.17
2019-03-02T16:09:25.148Z,5.03
2019-03-02T16:14:37.772Z,5.43
2019-03-02T16:19:53.170Z,4.83
2019-03-02T16:25:08.623Z,4.53
2019-03-02T16:30:21.523Z,6.50
2019-03-02T16:35:40.228Z,4.53
2019-03-02T16:40:59.661Z,4.73
2019-03-02T16:46:18.837Z,4.57
2019-03-02T16:51:29.664Z,5.13
2019-03-02T16:56:57.671Z,7.67
2019-03-02T17:02:08.492Z,4.90
2019-03-02T17:07:35.782Z,5.00
2019-03-02T17:13:12.238Z,4.37
2019-03-02T17:18:30.816Z,8.77
2019-03-02T17:23:42.389Z,14.80
2019-03-02T17:28:44.720Z,18.63
2019-03-02T17:33:55.813Z,14.50
2019-03-02T17:39:11.289Z,4.73
2019-03-02T17:44:18.703Z,4.60
2019-03-02T17:49:34.304Z,5.00
2019-03-02T17:55:05.867Z,6.00
2019-03-02T18:00:27.878Z,4.17
2019-03-02T18:05:40.119Z,3.30
2019-03-02T18:10:42.785Z,3.13
2019-03-02T18:15:52.892Z,3.37
2019-03-02T18:20:45.986Z,3.23
2019-03-02T18:25:39.499Z,2.60
2019-03-02T18:30:33.598Z,3.27
2019-03-02T18:35:26.624Z,2.60
2019-03-02T18:40:19.695Z,2.80
2019-03-02T18:45:13.559Z,3.67
2019-03-02T18:50:38.508Z,3.40
2019-03-02T18:55:32.593Z,4.57
2019-03-02T19:00:28.455Z,4.47
2019-03-02T19:05:28.339Z,5.60
2019-03-02T19:10:21.943Z,6.30
2019-03-02T19:15:16.942Z,5.40
2019-03-02T19:20:10.195Z,4.80
2019-03-02T19:25:04.417Z,4.47
2019-03-02T19:29:57.969Z,3.43
2019-03-02T19:34:51.091Z,4.63
2019-03-02T19:39:46.815Z,3.40
2019-03-02T19:44:40.047Z,3.30
2019-03-02T19:49:33.493Z,6.70
2019-03-02T19:54:26.851Z,5.83
2019-03-02T19:59:20.298Z,2.77
2019-03-02T20:04:13.661Z,3.67
2019-03-02T20:09:07.339Z,5.63
2019-03-02T20:14:00.637Z,3.70
2019-03-02T20:18:54.039Z,4.67
2019-03-02T20:23:47.632Z,5.83
2019-03-02T20:28:42.553Z,7.13
2019-03-02T20:33:37.100Z,9.70
2019-03-02T20:38:30.406Z,10.90
2019-03-02T20:43:23.904Z,11.07
2019-03-02T20:48:17.229Z,11.60
2019-03-02T20:53:10.521Z,8.13
2019-03-02T20:58:04.977Z,7.57
2019-03-02T21:02:57.877Z,7.77
2019-03-02T21:07:50.772Z,9.40
2019-03-02T21:12:43.749Z,9.37
2019-03-02T21:17:36.742Z,8.77
2019-03-02T21:22:29.653Z,10.77
2019-03-02T21:27:22.543Z,9.47
2019-03-02T21:32:15.433Z,8.37
2019-03-02T21:37:08.323Z,12.17
2019-03-02T21:42:01.415Z,8.60
2019-03-02T21:46:54.318Z,5.70
2019-03-02T21:51:47.711Z,7.03
2019-03-02T21:56:40.680Z,9.50
2019-03-02T22:01:33.649Z,8.73
2019-03-02T22:06:26.544Z,6.20
2019-03-02T22:11:19.523Z,9.20
2019-03-02T22:16:12.433Z,6.47
2019-03-02T22:22:37.034Z,8.23
2019-03-02T22:27:27.001Z,6.17
2019-03-02T22:32:22.063Z,7.93
2019-03-02T22:37:15.889Z,7.23
2019-03-02T22:42:10.522Z,8.97
2019-03-02T22:47:03.980Z,6.13
2019-03-02T22:51:59.509Z,7.53
2019-03-02T22:56:52.563Z,8.50
2019-03-02T23:02:19.745Z,11.10
2019-03-02T23:07:14.778Z,7.63
2019-03-02T23:12:09.801Z,8.20
2019-03-02T23:17:03.974Z,7.87
2019-03-02T23:21:58.130Z,6.93
2019-03-02T23:26:52.464Z,9.07
2019-03-02T23:31:52.989Z,5.90
2019-03-02T23:36:46.488Z,10.37
2019-03-02T23:41:40.518Z,5.70
2019-03-02T23:46:34.115Z,9.63
2019-03-02T23:51:29.033Z,8.00
2019-03-02T23:56:22.804Z,7.33
